Time;durP1;ratioP1;P1;durP2;ratioP2;P2;SDS_P1;SDS_P2;PMS_P1;PMS_P2;Temp;Humidity;BMP_temperature;BMP_pressure;BME280_temperature;BME280_humidity;BME280_pressure;Samples;Min_cycle;Max_cycle;Signal;HPM_P1;HPM_P2
2021/07/12 00:00:28;;;;;;;4.75;3.28;;;18.20;73.00;;;18.59;58.01;97457.28;4984514;28;20084;-36
2021/07/12 00:02:58;;;;;;;5.35;3.50;;;18.20;73.10;;;18.56;58.14;97460.41;5033288;28;20368;-36
2021/07/12 00:05:27;;;;;;;4.20;2.80;;;18.20;73.20;;;18.55;58.28;97458.75;4984685;28;20244;-36
2021/07/12 00:07:55;;;;;;;4.35;3.45;;;18.20;73.30;;;18.55;58.19;97461.44;4984541;28;20433;-36
2021/07/12 00:10:26;;;;;;;6.75;4.07;;;18.20;73.50;;;18.52;58.21;97453.81;4984505;28;20054;-36
2021/07/12 00:12:55;;;;;;;4.82;3.85;;;18.20;73.70;;;18.50;58.39;97451.31;4983348;28;20054;-35
2021/07/12 00:15:26;;;;;;;7.25;4.25;;;18.10;73.80;;;18.47;58.57;97446.34;4984116;28;20076;-35
2021/07/12 00:17:54;;;;;;;5.13;3.38;;;18.10;74.20;;;18.41;58.58;97448.03;5049291;28;20060;-35
2021/07/12 00:20:23;;;;;;;6.93;5.38;;;18.00;74.30;;;18.40;58.64;97445.59;4983774;28;20060;-36
2021/07/12 00:22:54;;;;;;;4.43;3.35;;;18.00;74.30;;;18.36;58.60;97449.72;4983474;28;20064;-35
2021/07/12 00:25:23;;;;;;;6.63;4.07;;;18.00;74.40;;;18.34;58.75;97447.28;4982986;28;20053;-35
2021/07/12 00:27:51;;;;;;;5.93;4.22;;;17.90;74.50;;;18.30;58.77;97446.06;4984332;28;20054;-36
2021/07/12 00:30:22;;;;;;;5.50;4.38;;;17.80;74.50;;;18.22;58.64;97441.75;4982643;28;20356;-35
2021/07/12 00:32:53;;;;;;;8.30;4.35;;;17.70;75.00;;;18.17;58.80;97430.78;5034257;28;20348;-36
2021/07/12 00:35:22;;;;;;;4.13;3.72;;;17.70;75.00;;;18.12;59.02;97425.19;4982894;28;20068;-36
2021/07/12 00:37:51;;;;;;;7.15;4.40;;;17.60;75.20;;;18.06;58.92;97413.41;5048010;28;20308;-36
2021/07/12 00:40:21;;;;;;;5.30;4.13;;;17.60;75.30;;;18.04;59.06;97418.19;4982634;28;20047;-36
2021/07/12 00:42:50;;;;;;;5.63;4.00;;;17.50;75.50;;;18.01;59.30;97409.69;4983242;28;20058;-36
2021/07/12 00:45:24;;;;;;;5.10;4.13;;;17.50;75.60;;;17.97;59.30;97406.63;5049354;28;20050;-37
2021/07/12 00:47:54;;;;;;;;;;;17.50;75.70;;;17.90;58.92;97403.94;5050045;28;20056;-36
2021/07/12 00:50:26;;;;;;;4.50;3.75;;;17.40;76.80;;;17.87;59.21;97411.63;4983367;28;20467;-36
2021/07/12 00:52:55;;;;;;;8.00;4.55;;;17.20;76.30;;;17.82;59.38;97411.44;4982898;28;20344;-36
2021/07/12 00:55:46;;;;;;;5.63;4.10;;;17.20;76.50;;;17.80;59.45;97405.44;5050502;28;20274;-36
2021/07/12 00:58:23;;;;;;;5.22;4.30;;;17.30;77.30;;;17.80;59.60;97402.75;5050449;28;20050;-36
2021/07/12 01:01:04;;;;;;;4.68;3.90;;;17.30;76.90;;;17.79;59.89;97395.69;5047946;28;20046;-36
2021/07/12 01:03:34;;;;;;;3.78;3.30;;;17.40;76.60;;;17.77;59.76;97395.06;5046901;28;20058;-36
2021/07/12 01:06:05;;;;;;;4.88;3.70;;;17.30;76.30;;;17.76;59.89;97398.78;4983074;28;20366;-37
2021/07/12 01:08:34;;;;;;;9.60;4.50;;;17.30;76.30;;;17.75;59.82;97387.22;4981922;28;20365;-37
2021/07/12 01:11:48;;;;;;;5.22;4.15;;;17.30;76.20;;;17.73;59.58;97380.41;5049551;28;20058;-36
2021/07/12 01:14:52;;;;;;;4.90;3.55;;;17.30;77.00;;;17.69;59.68;97394.25;4982871;28;20055;-36
2021/07/12 01:18:04;;;;;;;5.07;4.15;;;17.30;77.10;;;17.67;59.56;97395.53;5030523;28;20591;-36
2021/07/12 01:21:37;;;;;;;6.18;4.68;;;17.20;76.90;;;17.64;59.83;97388.72;5045822;28;20054;-36
2021/07/12 01:24:55;;;;;;;5.32;3.97;;;17.20;77.80;;;17.62;59.83;97376.47;5029773;28;20053;-37
2021/07/12 01:28:13;;;;;;;6.25;4.57;;;17.20;77.70;;;17.58;60.05;97367.19;4986287;28;20054;-36
2021/07/12 01:31:04;;;;;;;5.68;4.80;;;17.20;77.90;;;17.57;60.14;97374.44;4988138;28;20450;-37
2021/07/12 01:33:45;;;;;;;5.03;4.53;;;17.20;77.20;;;17.53;60.27;97365.13;4985105;28;20057;-36
2021/07/12 01:36:27;;;;;;;5.50;4.25;;;17.10;77.50;;;17.52;60.42;97364.31;5038827;28;20060;-37
2021/07/12 01:39:08;;;;;;;4.40;4.00;;;17.20;77.70;;;17.49;60.23;97372.00;4985105;28;20065;-37
2021/07/12 01:42:00;;;;;;;7.35;4.72;;;17.00;77.50;;;17.42;60.43;97369.31;5052131;28;20054;-36
2021/07/12 01:44:55;;;;;;;5.93;4.47;;;17.00;78.30;;;17.39;60.70;97364.38;4985366;28;20054;-37
2021/07/12 01:48:11;;;;;;;5.50;4.93;;;17.00;78.80;;;17.37;61.27;97362.91;5052103;28;20050;-36
2021/07/12 01:50:55;;;;;;;5.85;3.85;;;17.00;79.80;;;17.37;61.68;97354.81;5053930;28;20050;-36
2021/07/12 01:53:45;;;;;;;7.03;4.18;;;17.00;79.80;;;17.35;61.59;97357.75;5049344;28;20038;-36
2021/07/12 01:56:35;;;;;;;6.97;4.50;;;17.10;80.00;;;17.36;61.60;97359.41;5051765;28;20050;-36
2021/07/12 01:59:16;;;;;;;6.07;4.30;;;17.10;80.20;;;17.34;61.81;97356.09;5052172;28;20054;-36
2021/07/12 02:01:48;;;;;;;6.95;4.55;;;17.10;79.30;;;17.33;61.70;97349.03;5049966;28;20050;-36
2021/07/12 02:04:20;;;;;;;5.32;4.25;;;17.00;78.80;;;17.34;61.86;97349.88;5051255;28;20046;-37
2021/07/12 02:06:52;;;;;;;5.00;4.15;;;17.10;79.00;;;17.35;62.01;97349.69;5051377;28;20100;-36
2021/07/12 02:09:21;;;;;;;4.93;4.40;;;17.10;78.70;;;17.34;61.93;97341.81;5048788;28;20062;-36
2021/07/12 02:11:58;;;;;;;4.80;3.70;;;17.10;78.60;;;17.33;61.93;97351.72;5048672;28;20050;-36
2021/07/12 02:14:35;;;;;;;5.65;4.55;;;17.10;78.70;;;17.34;61.97;97364.16;5037038;28;20050;-37
2021/07/12 02:17:06;;;;;;;6.72;3.95;;;17.10;78.70;;;17.32;61.88;97369.75;5053520;28;20521;-36
2021/07/12 02:19:35;;;;;;;3.90;3.50;;;17.00;78.80;;;17.30;62.05;97368.31;5051481;28;20058;-37
2021/07/12 02:22:07;;;;;;;4.97;3.78;;;17.00;79.00;;;17.28;61.91;97352.38;5037338;28;20050;-36
2021/07/12 02:25:00;;;;;;;4.43;3.47;;;16.90;79.00;;;17.25;61.85;97358.19;5051250;28;20069;-36
2021/07/12 02:27:32;;;;;;;5.88;3.70;;;16.90;79.60;;;17.22;62.01;97352.41;5037219;28;20060;-36
2021/07/12 02:30:01;;;;;;;7.47;3.83;;;16.80;79.60;;;17.20;62.13;97360.69;4986603;28;20065;-36
2021/07/12 02:32:31;;;;;;;7.38;3.90;;;16.80;79.80;;;17.15;62.21;97356.97;5050758;28;20054;-36
2021/07/12 02:35:00;;;;;;;5.55;3.30;;;16.70;80.10;;;17.09;62.17;97354.06;4985447;28;20064;-36
2021/07/12 02:37:44;;;;;;;4.70;3.50;;;16.70;80.20;;;17.04;62.34;97359.28;5036347;28;20060;-36
2021/07/12 02:40:19;;;;;;;5.40;3.65;;;16.60;81.40;;;17.01;62.63;97346.22;5035485;28;20262;-36
2021/07/12 02:42:53;;;;;;;5.05;3.40;;;16.60;80.90;;;17.01;62.50;97351.59;5050997;28;20341;-36
2021/07/12 02:45:25;;;;;;;5.00;3.85;;;16.60;80.80;;;17.00;62.77;97341.06;5036845;28;20051;-36
2021/07/12 02:47:55;;;;;;;5.20;3.50;;;16.60;80.70;;;17.00;62.56;97344.59;5034921;28;20046;-36
2021/07/12 02:50:27;;;;;;;5.57;3.22;;;16.60;80.60;;;17.00;62.58;97347.28;4985248;28;20054;-36
2021/07/12 02:53:13;;;;;;;4.32;3.25;;;16.60;80.70;;;17.03;62.58;97351.41;5052425;28;20065;-36
2021/07/12 02:55:42;;;;;;;4.30;3.50;;;16.70;80.90;;;17.05;62.40;97352.84;5047092;28;20065;-36
2021/07/12 02:58:11;;;;;;;7.40;3.50;;;16.70;80.30;;;17.07;62.36;97352.63;5052902;28;20060;-36
2021/07/12 03:00:40;;;;;;;3.72;3.08;;;16.70;80.00;;;17.07;62.29;97352.63;5035634;28;20080;-36
2021/07/12 03:03:09;;;;;;;5.47;3.50;;;16.70;79.80;;;17.08;62.45;97346.22;5051974;28;20256;-36
2021/07/12 03:05:39;;;;;;;3.50;2.75;;;16.80;80.00;;;17.05;62.61;97344.78;4985870;28;20054;-36
2021/07/12 03:08:28;;;;;;;5.60;3.20;;;16.70;80.20;;;17.03;62.46;97344.16;4985372;28;20054;-36
2021/07/12 03:10:59;;;;;;;3.30;3.00;;;16.70;80.50;;;17.03;62.51;97346.84;5051198;28;20050;-36
2021/07/12 03:13:44;;;;;;;3.95;2.80;;;16.70;80.20;;;17.04;62.48;97339.59;5051503;28;20046;-36
2021/07/12 03:16:14;;;;;;;3.22;2.80;;;16.70;80.30;;;17.03;62.25;97346.03;4983799;28;20050;-36
2021/07/12 03:18:58;;;;;;;4.38;3.67;;;16.60;80.00;;;17.00;62.23;97341.06;5049818;28;20175;-36
2021/07/12 03:21:27;;;;;;;4.43;3.15;;;16.60;80.20;;;16.98;62.46;97333.19;5051663;28;20057;-36
2021/07/12 03:24:01;;;;;;;5.28;3.13;;;16.60;80.00;;;16.96;62.24;97326.38;5032502;28;20061;-36
2021/07/12 03:26:44;;;;;;;5.10;3.25;;;16.50;80.10;;;16.95;62.22;97316.69;5035829;28;20053;-37
2021/07/12 03:29:16;;;;;;;3.97;2.78;;;16.50;80.30;;;16.93;62.43;97316.88;4984364;28;20054;-37
2021/07/12 03:31:44;;;;;;;3.25;2.50;;;16.60;80.20;;;16.91;62.54;97309.00;5049369;28;20274;-37
2021/07/12 03:34:17;;;;;;;4.95;3.30;;;16.50;80.00;;;16.89;62.63;97319.16;5034832;28;20061;-37
2021/07/12 03:36:48;;;;;;;6.70;3.20;;;16.50;80.10;;;16.89;62.65;97311.09;4985682;28;20260;-37
2021/07/12 03:39:16;;;;;;;5.00;3.80;;;16.50;79.80;;;16.88;62.69;97312.09;5046082;28;20264;-37
2021/07/12 03:41:44;;;;;;;6.90;3.75;;;16.50;80.60;;;16.88;62.45;97316.66;5049215;28;20054;-36
2021/07/12 03:44:12;;;;;;;6.57;4.20;;;16.60;79.80;;;16.90;62.51;97322.66;4984790;28;20249;-37
2021/07/12 03:46:43;;;;;;;5.55;4.60;;;16.60;79.80;;;16.88;62.63;97304.03;4983912;28;20233;-36
2021/07/12 03:49:16;;;;;;;8.00;4.63;;;16.60;79.90;;;16.87;62.75;97317.72;5046759;28;20356;-37
2021/07/12 03:51:49;;;;;;;6.03;4.55;;;16.50;80.10;;;16.87;62.59;97328.47;5050282;28;20066;-37
2021/07/12 03:54:18;;;;;;;5.20;4.28;;;16.50;80.10;;;16.84;62.71;97320.81;4983479;28;20062;-37
2021/07/12 03:56:46;;;;;;;4.65;3.88;;;16.50;79.90;;;16.83;62.60;97321.88;4984625;28;20368;-37
2021/07/12 03:59:14;;;;;;;5.05;3.67;;;16.50;80.10;;;16.79;62.80;97318.72;4983576;28;20054;-37
2021/07/12 04:01:43;;;;;;;6.47;3.92;;;16.40;80.20;;;16.75;62.93;97317.50;4983427;28;20047;-37
2021/07/12 04:04:10;;;;;;;4.90;3.58;;;16.40;80.60;;;16.72;63.10;97307.97;4985811;28;20247;-37
2021/07/12 04:06:38;;;;;;;5.47;3.83;;;16.40;80.80;;;16.72;63.04;97312.53;4984519;28;20057;-37
2021/07/12 04:09:06;;;;;;;4.53;3.70;;;16.40;81.00;;;16.70;63.42;97309.22;4985083;28;20236;-37
2021/07/12 04:11:35;;;;;;;3.78;2.90;;;16.30;81.10;;;16.72;63.50;97309.84;4984933;28;20043;-37
2021/07/12 04:14:04;;;;;;;4.38;3.25;;;16.50;81.00;;;16.71;63.72;97297.41;4983298;28;20083;-37
2021/07/12 04:16:32;;;;;;;5.45;3.63;;;16.60;80.50;;;16.72;63.58;97293.72;4983328;28;20050;-37
2021/07/12 04:19:00;;;;;;;5.95;3.15;;;16.70;80.30;;;16.79;63.59;97286.47;4983207;28;20064;-37
2021/07/12 04:21:28;;;;;;;6.30;3.60;;;16.70;80.10;;;16.84;63.42;97285.88;4983196;28;20054;-37
2021/07/12 04:23:56;;;;;;;4.70;3.92;;;16.70;80.10;;;16.85;63.58;97280.28;4981358;28;20043;-37
2021/07/12 04:26:25;;;;;;;7.72;4.10;;;16.70;80.10;;;16.88;63.49;97279.03;4983787;28;20061;-37
2021/07/12 04:28:52;;;;;;;6.15;3.95;;;16.70;80.40;;;16.87;63.49;97277.41;4983412;28;20221;-37
2021/07/12 04:31:20;;;;;;;4.18;3.30;;;16.60;80.50;;;16.86;63.43;97283.78;4999654;23;20046;-40
2021/07/12 04:33:49;;;;;;;5.88;3.55;;;16.60;80.50;;;16.83;63.31;97276.16;4983736;28;20359;-40
2021/07/12 04:36:16;;;;;;;6.88;3.75;;;16.50;80.50;;;16.81;62.99;97280.88;4985501;28;20062;-40
2021/07/12 04:38:44;;;;;;;7.13;3.90;;;16.50;80.40;;;16.81;63.16;97279.03;4982587;28;20058;-40
2021/07/12 04:41:12;;;;;;;7.40;4.25;;;16.50;81.30;;;16.81;62.91;97286.25;4983652;28;20050;-40
2021/07/12 04:43:40;;;;;;;8.15;4.47;;;16.50;80.50;;;16.78;63.10;97273.25;4982683;28;20066;-40
2021/07/12 04:46:08;;;;;;;5.65;3.55;;;16.50;80.50;;;16.76;62.96;97278.00;4983421;28;20042;-40
2021/07/12 04:48:37;;;;;;;5.55;3.78;;;16.40;81.50;;;16.76;63.41;97278.81;4966504;28;20209;-40
2021/07/12 04:51:05;;;;;;;4.75;3.63;;;16.50;80.70;;;16.80;63.35;97284.59;4981500;28;20347;-40
2021/07/12 04:53:33;;;;;;;4.00;3.50;;;16.60;80.90;;;16.82;63.61;97291.44;4984123;28;20247;-40
2021/07/12 04:56:02;;;;;;;4.68;3.50;;;16.60;81.00;;;16.85;63.67;97296.41;4984604;28;20370;-40
2021/07/12 04:58:31;;;;;;;4.10;3.45;;;16.60;81.00;;;16.88;63.93;97293.28;4983054;28;20363;-41
2021/07/12 05:00:59;;;;;;;4.93;3.85;;;16.70;81.30;;;16.93;63.89;97300.75;4982534;28;20058;-41
2021/07/12 05:03:31;;;;;;;3.75;3.38;;;16.80;81.30;;;16.98;63.85;97300.91;4982775;28;20057;-40
2021/07/12 05:06:00;;;;;;;4.38;3.60;;;16.90;81.40;;;17.02;64.00;97307.56;4985973;28;20068;-40
2021/07/12 05:08:27;;;;;;;4.22;3.50;;;16.90;81.30;;;17.03;64.07;97306.50;4983070;28;20260;-39
2021/07/12 05:10:56;;;;;;;5.18;3.55;;;17.00;81.30;;;17.07;63.96;97307.72;4982483;28;20054;-39
2021/07/12 05:13:25;;;;;;;3.60;3.17;;;17.00;81.20;;;17.11;64.10;97306.28;4965360;28;20340;-40
2021/07/12 05:15:52;;;;;;;4.25;3.17;;;17.00;81.20;;;17.15;64.23;97298.59;4984690;28;20408;-40
2021/07/12 05:18:21;;;;;;;5.65;3.35;;;17.00;81.10;;;17.20;64.29;97296.13;4966300;28;20521;-40
2021/07/12 05:20:51;;;;;;;5.55;3.67;;;17.10;81.20;;;17.24;64.24;97293.84;4983760;28;20049;-40
2021/07/12 05:23:19;;;;;;;3.47;2.60;;;17.10;81.20;;;17.27;64.18;97285.31;4980985;28;20055;-40
2021/07/12 05:25:47;;;;;;;3.95;3.45;;;17.10;81.20;;;17.31;64.27;97283.84;4983289;28;20060;-41
2021/07/12 05:28:15;;;;;;;3.38;2.97;;;17.20;81.20;;;17.36;64.33;97280.56;4982552;28;20054;-39
2021/07/12 05:30:43;;;;;;;4.43;3.47;;;17.30;81.30;;;17.40;64.33;97279.91;4982423;28;20235;-39
2021/07/12 05:33:11;;;;;;;4.07;3.58;;;17.30;81.30;;;17.43;64.48;97276.78;4982089;28;20050;-40
2021/07/12 05:35:39;;;;;;;4.40;3.45;;;17.30;81.60;;;17.48;64.62;97273.44;4983530;28;20058;-40
2021/07/12 05:38:09;;;;;;;5.78;3.90;;;17.40;81.70;;;17.51;64.36;97271.16;4983554;28;20064;-40
2021/07/12 05:40:37;;;;;;;5.85;3.38;;;17.40;81.80;;;17.56;64.59;97277.75;4983502;28;20054;-40
2021/07/12 05:43:06;;;;;;;4.97;3.95;;;17.50;82.00;;;17.58;64.65;97262.22;4983177;28;20050;-40
2021/07/12 05:45:34;;;;;;;6.65;4.78;;;17.50;82.20;;;17.60;65.07;97247.53;4982760;28;20081;-40
2021/07/12 05:48:02;;;;;;;5.00;3.85;;;17.50;82.30;;;17.63;64.93;97255.16;4981841;28;20243;-40
2021/07/12 05:50:30;;;;;;;3.95;3.35;;;17.60;82.40;;;17.67;64.81;97256.38;4983494;28;20054;-39
2021/07/12 05:52:58;;;;;;;7.43;2.83;;;17.70;82.20;;;17.72;64.71;97269.19;4980339;28;20073;-41
2021/07/12 05:55:26;;;;;;;4.55;2.80;;;17.70;81.90;;;17.75;64.72;97267.94;4982626;28;20359;-40
2021/07/12 05:57:54;;;;;;;3.60;2.60;;;17.70;81.50;;;17.78;64.53;97264.81;4981748;28;20068;-40
2021/07/12 06:00:22;;;;;;;3.90;3.13;;;17.70;81.30;;;17.79;64.52;97274.53;4982191;28;20039;-40
2021/07/12 06:02:50;;;;;;;3.60;3.25;;;17.80;81.30;;;17.83;64.44;97275.75;4981494;28;20051;-40
2021/07/12 06:05:18;;;;;;;4.18;3.22;;;17.80;81.20;;;17.86;64.56;97276.19;4983541;28;20054;-40
2021/07/12 06:07:47;;;;;;;4.68;3.50;;;17.80;81.10;;;17.90;64.62;97271.19;4982016;28;20046;-40
2021/07/12 06:10:15;;;;;;;4.32;3.08;;;17.90;81.20;;;17.94;64.59;97277.78;4982690;28;20046;-40
2021/07/12 06:12:43;;;;;;;4.03;3.10;;;17.90;81.10;;;17.99;64.42;97271.72;4986446;28;20050;-40
2021/07/12 06:15:11;;;;;;;3.55;2.85;;;18.00;80.70;;;18.02;64.33;97265.94;4984727;28;20061;-40
2021/07/12 06:17:40;;;;;;;3.40;3.10;;;18.00;80.70;;;18.05;64.39;97269.00;4986375;28;20055;-40
2021/07/12 06:20:09;;;;;;;3.13;2.40;;;18.10;80.60;;;18.12;64.27;97265.44;4983863;28;20348;-40
2021/07/12 06:22:37;;;;;;;3.30;2.25;;;18.20;80.30;;;18.17;64.17;97265.63;4984868;28;20065;-40
2021/07/12 06:25:06;;;;;;;4.72;2.40;;;18.30;80.10;;;18.21;64.16;97258.75;4986184;28;20393;-40
2021/07/12 06:27:33;;;;;;;3.08;2.67;;;18.40;79.50;;;18.27;63.99;97261.38;4967982;28;20054;-40
2021/07/12 06:30:02;;;;;;;3.00;2.55;;;18.40;79.10;;;18.31;63.75;97256.38;4984584;28;20057;-41
2021/07/12 06:32:30;;;;;;;3.50;2.75;;;18.50;78.90;;;18.38;63.85;97249.06;4984229;28;20369;-40
2021/07/12 06:34:58;;;;;;;3.70;3.10;;;18.70;78.90;;;18.42;63.77;97246.75;4986077;28;20058;-39
2021/07/12 06:37:26;;;;;;;3.85;2.38;;;18.70;78.70;;;18.47;63.74;97247.72;4985498;28;20375;-40
2021/07/12 06:39:54;;;;;;;4.47;2.35;;;18.70;78.40;;;18.52;63.58;97246.25;4984583;28;20069;-40
2021/07/12 06:42:23;;;;;;;5.35;2.90;;;18.80;78.20;;;18.58;63.61;97248.06;4984282;28;20066;-40
2021/07/12 06:44:57;;;;;;;4.47;2.85;;;18.80;78.00;;;18.64;63.52;97249.88;4985199;28;20058;-40
2021/07/12 06:47:26;;;;;;;4.35;2.75;;;18.90;78.10;;;18.66;63.40;97245.88;4984785;28;20046;-41
2021/07/12 06:50:01;;;;;;;3.75;2.83;;;19.00;77.80;;;18.77;63.45;97254.31;4967447;28;20263;-41
2021/07/12 06:52:28;;;;;;;3.15;2.55;;;19.00;77.80;;;18.86;63.47;97258.38;4984622;28;20098;-40
2021/07/12 06:54:56;;;;;;;3.72;3.28;;;19.10;77.80;;;18.92;63.47;97251.28;4968089;28;20428;-40
2021/07/12 06:57:24;;;;;;;4.75;2.72;;;19.20;77.70;;;19.00;63.30;97250.97;4967667;28;20065;-42
2021/07/12 06:59:52;;;;;;;2.88;2.58;;;19.30;77.70;;;19.05;63.16;97238.44;4968101;28;20057;-41
2021/07/12 07:02:20;;;;;;;4.70;2.60;;;19.40;77.50;;;19.11;63.50;97235.91;4983450;28;20077;-41
2021/07/12 07:04:57;;;;;;;3.10;2.30;;;19.40;77.60;;;19.19;63.21;97235.59;4967761;28;20368;-41
2021/07/12 07:07:24;;;;;;;3.15;2.08;;;19.40;77.50;;;19.24;63.11;97231.19;4984325;28;20449;-40
2021/07/12 07:09:52;;;;;;;3.92;2.38;;;19.50;77.60;;;19.30;63.11;97226.75;4985611;28;20243;-40
2021/07/12 07:12:20;;;;;;;4.93;2.22;;;19.60;77.50;;;19.34;63.22;97213.63;4983215;28;20054;-40
2021/07/12 07:14:48;;;;;;;2.90;2.63;;;19.60;77.30;;;19.38;62.95;97204.84;4984402;28;20050;-40
2021/07/12 07:17:16;;;;;;;3.20;2.35;;;19.60;77.20;;;19.43;62.78;97199.59;4967986;28;20070;-40
2021/07/12 07:19:44;;;;;;;4.85;2.50;;;19.70;77.30;;;19.48;62.84;97190.78;4983745;28;20155;-40
2021/07/12 07:22:12;;;;;;;5.40;2.50;;;19.70;77.30;;;19.52;62.66;97177.66;4967288;28;20054;-40
2021/07/12 07:24:49;;;;;;;3.20;2.40;;;19.80;77.10;;;19.56;62.82;97173.44;4964241;28;20692;-40
2021/07/12 07:27:40;;;;;;;3.15;2.22;;;19.80;77.00;;;19.63;62.63;97187.69;4983809;28;20050;-41
2021/07/12 07:30:09;;;;;;;3.22;2.70;;;19.80;77.00;;;19.68;62.51;97179.72;4984156;28;20046;-41
2021/07/12 07:32:37;;;;;;;2.53;2.20;;;19.90;76.90;;;19.67;61.86;97175.38;4984009;28;20073;-40
2021/07/12 07:35:08;;;;;;;3.63;2.50;;;20.00;76.30;;;19.76;62.43;97170.50;4984455;28;20060;-43
2021/07/12 07:37:37;;;;;;;3.03;2.30;;;20.00;76.10;;;19.82;61.99;97167.69;4951211;28;20059;-41
2021/07/12 07:40:08;;;;;;;4.05;2.60;;;20.10;75.90;;;19.88;61.81;97147.03;4983751;28;20061;-42
2021/07/12 07:42:37;;;;;;;3.63;2.60;;;20.20;75.70;;;19.96;61.74;97149.38;4984872;28;20058;-43
2021/07/12 07:45:09;;;;;;;3.53;2.47;;;20.30;75.80;;;20.02;61.61;97140.34;4984479;28;20050;-41
2021/07/12 07:47:37;;;;;;;3.72;2.63;;;20.30;75.20;;;20.08;61.50;97143.97;4967122;28;20061;-40
2021/07/12 07:50:21;;;;;;;3.50;2.38;;;20.40;75.10;;;20.16;61.17;97142.81;4984462;28;20084;-41
2021/07/12 07:52:51;;;;;;;3.45;2.35;;;20.40;74.70;;;20.20;61.39;97136.72;4984608;28;20055;-41
2021/07/12 07:55:20;;;;;;;3.60;2.65;;;20.50;74.60;;;20.23;60.81;97138.13;4985115;28;20052;-41
2021/07/12 07:57:48;;;;;;;4.45;2.60;;;20.50;74.20;;;20.27;61.03;97133.88;4982586;28;20068;-41
2021/07/12 08:00:20;;;;;;;4.00;2.35;;;20.50;75.20;;;20.32;60.50;97130.50;4981372;28;20064;-41
2021/07/12 08:02:48;;;;;;;3.88;2.40;;;20.60;73.90;;;20.37;60.84;97127.88;4982200;28;20223;-41
2021/07/12 08:05:16;;;;;;;3.10;2.53;;;20.60;74.20;;;20.41;60.75;97120.94;4981729;28;20034;-41
2021/07/12 08:07:44;;;;;;;3.58;2.55;;;20.70;74.30;;;20.46;60.86;97124.59;4984297;28;20046;-41
2021/07/12 08:10:16;;;;;;;3.80;2.28;;;20.70;74.50;;;20.51;60.85;97123.91;4948486;28;20057;-41
2021/07/12 08:12:45;;;;;;;3.53;2.90;;;20.80;74.30;;;20.54;60.74;97128.81;4983585;28;20332;-41
2021/07/12 08:15:17;;;;;;;4.40;2.70;;;20.80;74.00;;;20.57;60.56;97131.06;4982468;28;20064;-41
2021/07/12 08:17:47;;;;;;;2.58;2.15;;;20.80;73.60;;;20.61;59.92;97124.13;4982741;28;20339;-41
2021/07/12 08:20:17;;;;;;;2.97;2.50;;;20.90;73.30;;;20.62;59.29;97117.66;4982792;28;20363;-41
2021/07/12 08:22:53;;;;;;;2.30;1.77;;;20.90;72.60;;;20.67;59.77;97116.94;4983479;28;20046;-40
2021/07/12 08:25:22;;;;;;;3.65;2.75;;;20.90;73.10;;;20.71;59.74;97117.31;4985042;28;20050;-40
2021/07/12 08:27:51;;;;;;;3.17;2.28;;;21.00;73.00;;;20.77;60.03;97105.53;4983889;28;20050;-40
2021/07/12 08:30:21;;;;;;;5.80;2.20;;;21.00;73.00;;;20.80;59.85;97099.63;4982875;28;20270;-40
2021/07/12 08:32:49;;;;;;;3.38;2.30;;;21.10;73.00;;;20.86;59.85;97090.56;4982720;28;20080;-40
2021/07/12 08:35:17;;;;;;;2.35;2.15;;;21.10;73.20;;;20.90;59.80;97088.16;4981948;28;20062;-40
2021/07/12 08:37:49;;;;;;;4.82;2.38;;;21.20;72.80;;;20.94;59.50;97087.47;4983845;28;20053;-41
2021/07/12 08:40:24;;;;;;;3.67;2.80;;;21.20;72.70;;;20.98;59.41;97082.41;4984168;28;20064;-41
2021/07/12 08:42:55;;;;;;;2.20;1.83;;;21.30;72.50;;;21.06;60.02;97083.91;4984444;28;20262;-41
2021/07/12 08:45:24;;;;;;;3.30;2.20;;;21.30;73.10;;;21.12;59.64;97083.75;4983376;28;20412;-41
2021/07/12 08:47:52;;;;;;;2.90;2.22;;;21.40;72.70;;;21.16;59.71;97074.06;4981816;28;20058;-41
2021/07/12 08:50:23;;;;;;;2.38;2.10;;;21.50;72.60;;;21.23;59.37;97074.75;4982023;28;20120;-41
2021/07/12 08:52:54;;;;;;;2.47;2.10;;;21.50;72.10;;;21.27;59.13;97069.69;4983998;28;20061;-41
2021/07/12 08:55:23;;;;;;;4.68;2.10;;;21.50;72.10;;;21.32;59.40;97074.34;4982700;28;20062;-41
2021/07/12 08:58:10;;;;;;;3.72;2.33;;;21.50;72.20;;;21.35;59.01;97071.97;4984147;28;20058;-41
2021/07/12 09:00:55;;;;;;;3.72;2.20;;;21.60;71.10;;;;;;4982140;28;20062;-41
2021/07/12 09:03:28;;;;;;;3.20;2.47;;;21.60;71.10;;;21.42;58.15;97088.06;4982611;28;20425;-41
2021/07/12 09:06:16;;;;;;;3.78;2.75;;;21.60;71.10;;;21.47;58.27;97084.66;4982983;28;20336;-41
2021/07/12 09:08:56;;;;;;;3.30;2.20;;;21.70;71.10;;;21.50;57.66;97087.69;4965271;28;20050;-41
2021/07/12 09:11:26;;;;;;;2.88;2.03;;;21.70;70.60;;;21.55;57.61;97086.97;4982247;28;20047;-42
2021/07/12 09:14:03;;;;;;;3.72;2.10;;;21.80;70.30;;;21.62;58.08;97088.44;4983769;28;20049;-41
2021/07/12 09:16:36;;;;;;;3.75;2.00;;;21.80;70.40;;;21.64;57.34;97069.25;4983538;28;20240;-40
2021/07/12 09:19:32;;;;;;;;;;;21.90;69.40;;;21.65;56.42;97084.41;4984446;28;20057;-41
2021/07/12 09:22:10;;;;;;;2.42;1.77;;;21.90;68.20;;;21.77;57.24;97081.63;4980725;28;19918;-41
2021/07/12 09:24:56;;;;;;;2.33;2.00;;;21.90;69.90;;;21.83;57.44;97075.25;4964637;28;20054;-40
2021/07/12 09:27:30;;;;;;;2.30;2.10;;;22.00;70.00;;;21.88;56.74;97082.63;4983042;28;20382;-40
2021/07/12 09:30:12;;;;;;;2.60;2.10;;;22.10;69.40;;;21.94;56.20;97087.03;4981898;28;20374;-40
2021/07/12 09:32:45;;;;;;;2.63;2.28;;;22.20;68.10;;;22.01;56.32;97093.94;4982414;28;20327;-40
2021/07/12 09:35:16;;;;;;;3.80;2.08;;;22.30;68.60;;;22.07;56.51;97089.41;4982634;28;20066;-40
2021/07/12 09:37:59;;;;;;;2.70;2.13;;;22.30;68.40;;;22.12;54.94;97088.66;4985023;28;20051;-40
2021/07/12 09:40:29;;;;;;;6.37;2.70;;;22.40;67.50;;;22.20;55.94;97099.09;4982643;28;20062;-40
2021/07/12 09:42:57;;;;;;;2.45;1.90;;;22.50;67.80;;;22.25;55.62;97101.88;4981702;28;20540;-40
2021/07/12 09:45:30;;;;;;;2.50;2.08;;;22.60;67.10;;;22.31;55.27;97095.47;4984676;28;20043;-40
2021/07/12 09:48:07;;;;;;;2.85;2.20;;;22.70;66.80;;;22.36;54.97;97095.53;4984366;28;20256;-40
2021/07/12 09:50:48;;;;;;;2.78;2.08;;;22.70;65.50;;;22.48;54.64;97091.91;4969343;28;20046;-40
2021/07/12 09:53:28;;;;;;;3.20;1.83;;;22.90;65.80;;;22.58;54.13;97084.72;4986123;28;20054;-40
2021/07/12 09:56:09;;;;;;;2.40;2.20;;;23.00;65.20;;;22.69;53.79;97072.09;4987287;28;20082;-40
2021/07/12 09:58:37;;;;;;;2.53;2.17;;;23.20;64.60;;;22.84;54.70;97071.47;4984428;28;20059;-40
2021/07/12 10:01:07;;;;;;;2.90;2.30;;;23.30;65.30;;;22.94;53.73;97055.28;4967906;28;20054;-40
2021/07/12 10:03:38;;;;;;;2.10;1.90;;;23.40;64.60;;;23.06;53.20;97044.31;4968092;28;20062;-40
2021/07/12 10:06:06;;;;;;;2.75;2.35;;;23.50;63.80;;;23.19;53.09;97045.81;4968754;28;20050;-40
2021/07/12 10:08:34;;;;;;;2.25;1.80;;;23.70;63.40;;;23.29;52.34;97036.94;4983980;28;20061;-41
2021/07/12 10:11:02;;;;;;;2.30;2.05;;;23.90;62.40;;;23.42;52.20;97044.66;4969451;28;20045;-41
2021/07/12 10:13:30;;;;;;;6.30;2.20;;;23.90;62.10;;;23.52;52.26;97042.03;4968310;28;20060;-42
2021/07/12 10:15:58;;;;;;;2.20;1.85;;;24.10;61.90;;;23.58;51.76;97053.75;4984428;28;20065;-39
2021/07/12 10:18:27;;;;;;;2.90;2.47;;;24.20;61.30;;;23.63;50.98;97051.06;4984457;28;20053;-40
2021/07/12 10:20:55;;;;;;;2.78;2.30;;;24.30;60.30;;;23.71;50.16;97056.03;4967083;28;20065;-40
2021/07/12 10:23:24;;;;;;;3.00;2.13;;;24.30;59.70;;;23.75;50.20;97053.63;4969151;28;20284;-40
2021/07/12 10:25:55;;;;;;;3.20;2.28;;;24.30;59.50;;;23.84;50.43;97043.09;4983427;28;20038;-39
2021/07/12 10:28:43;;;;;;;2.40;2.20;;;24.40;59.60;;;23.88;50.16;97038.78;4985432;28;20057;-40
2021/07/12 10:31:22;;;;;;;4.18;2.00;;;24.40;59.50;;;23.94;49.55;97043.16;4985684;28;20116;-41
2021/07/12 10:33:50;;;;;;;3.72;2.72;;;24.50;58.10;;;23.99;50.02;97045.94;4985140;28;20240;-41
2021/07/12 10:36:39;;;;;;;5.97;2.15;;;24.50;59.30;;;24.04;46.91;97059.56;4966772;28;20066;-41
2021/07/12 10:39:07;;;;;;;3.72;2.58;;;24.60;55.60;;;24.10;48.87;97058.50;4969147;28;20054;-41
2021/07/12 10:41:48;;;;;;;2.20;1.98;;;24.70;57.80;;;24.15;48.14;97058.53;4984923;28;20053;-41
2021/07/12 10:44:17;;;;;;;2.83;1.90;;;24.70;55.70;;;24.21;48.01;97062.09;4984599;28;20054;-41